Test XHTML 1.0 Strict Page for WU-History Testing
Histórico de la Estación METEOCORUÑA
 
Diario Datos del Diciembre 10, 2018 Unidades:  Metrico    Inglés   Ambos
« Prev Dia
Sig Dia »
Diario Semanal Mensual Anual Rango
  Actual: Max: Min: Media:
Temp: -11.3 °C -17.8 °C -13.6 °C -13 °C
Rocío: -15 °C -17.8 °C -15.2 °C -14.2 °C
Humedad: 64 % Humidity % 62 % 87 %
Vel. viento: 20.8 km/h 0 km/h 2.6 km/h 10.5 km/h
Racha: 23.3 km/h 0 km/h - -
Viento:East - - East
Presión: 34852.1 hPa 0 hPa 34841.9 hPa -
Lluvia: 0 mm      
Historical Graphs
 
 
Busqueda de Diciembre 10, 2018
Hora Temp Rocío Presión Viento Vel. viento Racha Humedad Ratio lluvia (/hora) Radiación
-17.8 °C -17.8 °C 0 hPa Calm     Humidity % 0 mm SolarRadiationWatts/m^2 W/m2
00:03 -12.3 °C -13.2 °C 34994.3 hPa East 7.7 km/h 15.6 km/h 90 % 0 mm 0.00 W/m2
00:07 -12.3 °C -13.2 °C 34990.9 hPa ENE 7.7 km/h 12.9 km/h 90 % 0 mm 0.00 W/m2
00:12 -12.3 °C -13.2 °C 34987.5 hPa ENE 7.7 km/h 10.3 km/h 90 % 0 mm 0.00 W/m2
00:17 -12.4 °C -13.3 °C 34987.5 hPa ENE 5.1 km/h 10.3 km/h 90 % 0 mm 0.00 W/m2
00:22 -12.4 °C -13.3 °C 34984.2 hPa ENE 5.1 km/h 12.9 km/h 90 % 0 mm 0.00 W/m2
00:28 -12.4 °C -13.2 °C 34980.8 hPa ENE 5.1 km/h 10.3 km/h 91 % 0 mm 0.00 W/m2
00:33 -12.6 °C -13.4 °C 34984.2 hPa ENE 5.1 km/h 7.7 km/h 90 % 0 mm 0.00 W/m2
00:38 -12.6 °C -13.5 °C 34984.2 hPa ENE 5.1 km/h 7.7 km/h 90 % 0 mm 0.00 W/m2
00:42 -12.6 °C -13.4 °C 34984.2 hPa ENE 2.6 km/h 7.7 km/h 91 % 0 mm 0.00 W/m2
00:47 -12.7 °C -13.4 °C 34980.8 hPa ENE 2.6 km/h 10.3 km/h 91 % 0 mm 0.00 W/m2
00:52 -12.7 °C -13.4 °C 34963.8 hPa ENE 9 km/h 3.7 km/h 91 % 0 mm 0.00 W/m2
00:57 -12.7 °C -13.5 °C 34980.8 hPa ENE 2.6 km/h 7.7 km/h 91 % 0 mm 0.00 W/m2
01:02 -12.7 °C -13.5 °C 34980.8 hPa ENE 2.6 km/h 10.3 km/h 91 % 0 mm 0.00 W/m2
01:07 -12.7 °C -13.5 °C 34980.8 hPa ENE 5.1 km/h 5.1 km/h 91 % 0 mm 0.00 W/m2
01:12 -12.7 °C -13.5 °C 34963.8 hPa ENE 9 km/h 3.1 km/h 91 % 0 mm 0.00 W/m2
01:17 -12.7 °C -13.5 °C 34977.4 hPa ENE 5.1 km/h 10.3 km/h 91 % 0 mm 0.00 W/m2
01:22 -12.7 °C -13.4 °C 34974 hPa ENE 7.7 km/h 18.2 km/h 91 % 0 mm 0.00 W/m2
01:27 -12.7 °C -13.4 °C 34974 hPa East 10.3 km/h 20.8 km/h 91 % 0 mm 0.00 W/m2
01:33 -12.7 °C -13.5 °C 34970.6 hPa ENE 12.9 km/h 12.9 km/h 91 % 0 mm 0.00 W/m2
01:37 -12.7 °C -13.5 °C 34974 hPa ENE 12.9 km/h 18.2 km/h 91 % 0 mm 0.00 W/m2
01:42 -12.7 °C -13.4 °C 34970.6 hPa ENE 12.9 km/h 18.2 km/h 92 % 0 mm 0.00 W/m2
01:47 -12.7 °C -13.4 °C 34967.2 hPa ENE 12.9 km/h 18.2 km/h 91 % 0 mm 0.00 W/m2
01:52 -12.7 °C -13.5 °C 34960.5 hPa ENE 12.9 km/h 18.2 km/h 91 % 0 mm 0.00 W/m2
01:57 -12.8 °C -13.6 °C 34960.5 hPa ENE 10.3 km/h 12.9 km/h 91 % 0 mm 0.00 W/m2
02:02 -12.8 °C -13.6 °C 34960.5 hPa ENE 7.7 km/h 12.9 km/h 91 % 0 mm 0.00 W/m2
02:07 -12.9 °C -13.7 °C 34943.5 hPa ENE 11.9 km/h 8.9 km/h 91 % 0 mm 0.00 W/m2
02:13 -12.9 °C -13.6 °C 34957.1 hPa ENE 10.3 km/h 20.8 km/h 92 % 0 mm 0.00 W/m2
02:17 -12.9 °C -13.6 °C 34957.1 hPa East 12.9 km/h 23.3 km/h 92 % 0 mm 0.00 W/m2
02:22 -12.9 °C -13.6 °C 34957.1 hPa ENE 15.6 km/h 20.8 km/h 92 % 0 mm 0.00 W/m2
02:27 -12.9 °C -13.6 °C 34950.3 hPa ENE 15.6 km/h 20.8 km/h 92 % 0 mm 0.00 W/m2
02:32 -12.9 °C -13.6 °C 34946.9 hPa ENE 12.9 km/h 25.9 km/h 92 % 0 mm 0.00 W/m2
02:37 -13 °C -13.7 °C 34950.3 hPa ENE 15.6 km/h 25.9 km/h 92 % 0 mm 0.00 W/m2
02:42 -13 °C -13.7 °C 34953.7 hPa East 15.6 km/h 20.8 km/h 92 % 0 mm 0.00 W/m2
02:47 -13 °C -13.7 °C 34936.7 hPa East 20.9 km/h 13.7 km/h 92 % 0 mm 0.00 W/m2
02:52 -13 °C -13.7 °C 34953.7 hPa East 12.9 km/h 18.2 km/h 92 % 0 mm 0.00 W/m2
02:57 -13 °C -13.7 °C 34953.7 hPa East 12.9 km/h 12.9 km/h 92 % 0 mm 0.00 W/m2
03:02 -13.1 °C -13.7 °C 34953.7 hPa East 10.3 km/h 12.9 km/h 92 % 0 mm 0.00 W/m2
03:08 -13.1 °C -13.7 °C 34953.7 hPa East 7.7 km/h 15.6 km/h 92 % 0 mm 0.00 W/m2
03:13 -13.1 °C -13.8 °C 34953.7 hPa East 7.7 km/h 12.9 km/h 92 % 0 mm 0.00 W/m2
03:18 -13.1 °C -13.8 °C 34953.7 hPa East 7.7 km/h 15.6 km/h 92 % 0 mm 0.00 W/m2
03:22 -13.1 °C -13.8 °C 34957.1 hPa East 7.7 km/h 12.9 km/h 92 % 0 mm 0.00 W/m2
03:27 -13.1 °C -13.8 °C 34957.1 hPa East 7.7 km/h 12.9 km/h 92 % 0 mm 0.00 W/m2
03:32 -13.1 °C -13.8 °C 34957.1 hPa East 5.1 km/h 15.6 km/h 92 % 0 mm 0.00 W/m2
03:37 -13.1 °C -13.8 °C 34957.1 hPa East 7.7 km/h 12.9 km/h 92 % 0 mm 0.00 W/m2
03:42 -13.1 °C -13.8 °C 34950.3 hPa East 10.3 km/h 18.2 km/h 92 % 0 mm 0.00 W/m2
03:47 -13.2 °C -13.8 °C 34950.3 hPa East 10.3 km/h 18.2 km/h 92 % 0 mm 0.00 W/m2
03:53 -13.2 °C -13.8 °C 34946.9 hPa East 12.9 km/h 15.6 km/h 92 % 0 mm 0.00 W/m2
03:57 -13.1 °C -13.8 °C 34946.9 hPa East 12.9 km/h 15.6 km/h 92 % 0 mm 0.00 W/m2
04:02 -13.2 °C -13.8 °C 34943.5 hPa ENE 10.3 km/h 12.9 km/h 92 % 0 mm 0.00 W/m2
04:07 -13.2 °C -13.8 °C 34940.1 hPa ENE 7.7 km/h 10.3 km/h 92 % 0 mm 0.00 W/m2
04:12 -13.2 °C -13.8 °C 34940.1 hPa East 7.7 km/h 7.7 km/h 92 % 0 mm 0.00 W/m2
04:17 -13.2 °C -13.8 °C 34933.4 hPa ENE 5.1 km/h 10.3 km/h 92 % 0 mm 0.00 W/m2
04:22 -13.2 °C -14 °C 34916.4 hPa ENE 9 km/h 3.1 km/h 91 % 0 mm 0.00 W/m2
04:28 -13.2 °C -13.9 °C 34933.4 hPa ENE 5.1 km/h 10.3 km/h 92 % 0 mm 0.00 W/m2
04:32 -13.2 °C -13.9 °C 34930 hPa ENE 5.1 km/h 18.2 km/h 92 % 0 mm 0.00 W/m2
04:38 -13.2 °C -14 °C 34933.4 hPa East 5.1 km/h 7.7 km/h 91 % 0 mm 0.00 W/m2
04:42 -13.3 °C -14.1 °C 34930 hPa East 5.1 km/h 5.1 km/h 91 % 0 mm 0.00 W/m2
04:47 -13.4 °C -14.2 °C 34930 hPa East 2.6 km/h 7.7 km/h 91 % 0 mm 0.00 W/m2
04:52 -13.4 °C -14.2 °C 34930 hPa East 2.6 km/h 15.6 km/h 91 % 0 mm 0.00 W/m2
04:57 -13.4 °C -14.2 °C 34926.6 hPa East 7.7 km/h 15.6 km/h 91 % 0 mm 0.00 W/m2
05:02 -13.4 °C -14.1 °C 34923.2 hPa East 10.3 km/h 15.6 km/h 92 % 0 mm 0.00 W/m2
05:07 -13.4 °C -14.1 °C 34919.8 hPa East 7.7 km/h 12.9 km/h 92 % 0 mm 0.00 W/m2
05:12 -13.4 °C -14.1 °C 34919.8 hPa East 7.7 km/h 12.9 km/h 92 % 0 mm 0.00 W/m2
05:17 -13.4 °C -14.1 °C 34919.8 hPa East 7.7 km/h 12.9 km/h 92 % 0 mm 0.00 W/m2
05:22 -13.3 °C -14 °C 34913 hPa East 5.1 km/h 12.9 km/h 92 % 0 mm 0.00 W/m2
05:27 -13.3 °C -14 °C 34909.7 hPa ENE 7.7 km/h 20.8 km/h 92 % 0 mm 0.00 W/m2
05:33 -13.3 °C -14 °C 34906.3 hPa East 12.9 km/h 23.3 km/h 92 % 0 mm 0.00 W/m2
05:37 -13.3 °C -14 °C 34909.7 hPa East 15.6 km/h 25.9 km/h 92 % 0 mm 0.00 W/m2
05:43 -13.4 °C -14.1 °C 34909.7 hPa East 12.9 km/h 15.6 km/h 92 % 0 mm 0.00 W/m2
05:47 -13.4 °C -14.2 °C 34909.7 hPa East 7.7 km/h 7.7 km/h 91 % 0 mm 0.00 W/m2
05:52 -13.4 °C -14.2 °C 34906.3 hPa East 7.7 km/h 15.6 km/h 91 % 0 mm 0.00 W/m2
05:57 -13.5 °C -14.3 °C 34906.3 hPa East 7.7 km/h 15.6 km/h 91 % 0 mm 0.00 W/m2
06:02 -13.5 °C -14.3 °C 34902.9 hPa East 10.3 km/h 20.8 km/h 91 % 0 mm 0.00 W/m2
06:07 -13.5 °C -14.3 °C 34899.5 hPa ENE 12.9 km/h 12.9 km/h 91 % 0 mm 0.00 W/m2
06:12 -13.5 °C -14.3 °C 34899.5 hPa ENE 10.3 km/h 12.9 km/h 91 % 0 mm 0.00 W/m2
06:17 -13.6 °C -14.3 °C 34896.1 hPa East 7.7 km/h 20.8 km/h 91 % 0 mm 0.00 W/m2
06:23 -13.6 °C -14.3 °C 34892.7 hPa East 10.3 km/h 20.8 km/h 91 % 0 mm 0.00 W/m2
06:27 -13.6 °C -14.3 °C 34889.3 hPa East 10.3 km/h 18.2 km/h 91 % 0 mm 0.00 W/m2
06:32 -13.6 °C -14.3 °C 34892.7 hPa East 10.3 km/h 20.8 km/h 91 % 0 mm 0.00 W/m2
06:37 -13.6 °C -14.3 °C 34889.3 hPa East 12.9 km/h 18.2 km/h 91 % 0 mm 0.00 W/m2
06:42 -13.6 °C -14.3 °C 34889.3 hPa ENE 12.9 km/h 20.8 km/h 91 % 0 mm 0.00 W/m2
06:47 -13.6 °C -14.3 °C 34892.7 hPa East 10.3 km/h 18.2 km/h 91 % 0 mm 0.00 W/m2
06:52 -13.6 °C -14.3 °C 34892.7 hPa East 10.3 km/h 18.2 km/h 91 % 0 mm 0.00 W/m2
06:57 -13.6 °C -14.4 °C 34892.7 hPa East 10.3 km/h 18.2 km/h 91 % 0 mm 0.00 W/m2
07:02 -13.6 °C -14.3 °C 34892.7 hPa East 7.7 km/h 20.8 km/h 91 % 0 mm 0.00 W/m2
07:07 -13.6 °C -14.3 °C 34889.3 hPa East 12.9 km/h 18.2 km/h 91 % 0 mm 0.00 W/m2
07:12 -13.5 °C -14.3 °C 34889.3 hPa East 10.3 km/h 18.2 km/h 91 % 0 mm 0.00 W/m2
07:17 -13.5 °C -14.3 °C 34889.3 hPa East 10.3 km/h 18.2 km/h 91 % 0 mm 0.00 W/m2
07:22 -13.4 °C -14.2 °C 34889.3 hPa East 12.9 km/h 18.2 km/h 91 % 0 mm 0.00 W/m2
07:27 -13.4 °C -14.2 °C 34889.3 hPa East 12.9 km/h 18.2 km/h 91 % 0 mm 0.00 W/m2
07:32 -13.5 °C -14.3 °C 34889.3 hPa East 10.3 km/h 20.8 km/h 91 % 0 mm 0.00 W/m2
07:37 -13.5 °C -14.3 °C 34886 hPa East 7.7 km/h 18.2 km/h 91 % 0 mm 0.00 W/m2
07:42 -13.6 °C -14.4 °C 34889.3 hPa East 7.7 km/h 12.9 km/h 90 % 0 mm 0.00 W/m2
07:47 -13.5 °C -14.3 °C 34889.3 hPa East 7.7 km/h 18.2 km/h 90 % 0 mm 0.00 W/m2
07:52 -13.5 °C -14.3 °C 34889.3 hPa East 7.7 km/h 12.9 km/h 90 % 0 mm 0.00 W/m2
07:57 -13.5 °C -14.3 °C 34889.3 hPa East 5.1 km/h 7.7 km/h 90 % 0 mm 0.00 W/m2
08:02 -13.5 °C -14.3 °C 34889.3 hPa East 5.1 km/h 12.9 km/h 90 % 0 mm 0.00 W/m2
08:08 -13.5 °C -14.3 °C 34889.3 hPa East 7.7 km/h 15.6 km/h 90 % 0 mm 0.00 W/m2
08:12 -13.5 °C -14.4 °C 34889.3 hPa East 10.3 km/h 15.6 km/h 89 % 0 mm 0.00 W/m2
08:17 -13.5 °C -14.4 °C 34886 hPa East 10.3 km/h 15.6 km/h 89 % 0 mm 0.00 W/m2
08:22 -13.4 °C -14.5 °C 34886 hPa East 10.3 km/h 15.6 km/h 88 % 0 mm 0.00 W/m2
08:27 -13.4 °C -14.4 °C 34889.3 hPa East 7.7 km/h 7.7 km/h 88 % 0 mm 0.00 W/m2
08:32 -13.4 °C -14.5 °C 34886 hPa East 5.1 km/h 15.6 km/h 87 % 0 mm 0.00 W/m2
08:37 -13.4 °C -14.5 °C 34882.6 hPa East 5.1 km/h 5.1 km/h 87 % 0 mm 0.00 W/m2
08:42 -13.4 °C -14.6 °C 34879.2 hPa East 5.1 km/h 15.6 km/h 87 % 0 mm 0.00 W/m2
08:47 -13.4 °C -14.6 °C 34879.2 hPa East 5.1 km/h 18.2 km/h 87 % 0 mm 0.00 W/m2
08:52 -13.4 °C -14.5 °C 34882.6 hPa East 10.3 km/h 15.6 km/h 87 % 0 mm 5.00 W/m2
08:57 -13.3 °C -14.5 °C 34886 hPa East 12.9 km/h 15.6 km/h 86 % 0 mm 5.00 W/m2
09:02 -13.3 °C -14.6 °C 34862.3 hPa East 15.6 km/h 10.9 km/h 86 % 0 mm 9.00 W/m2
09:07 -13.3 °C -14.6 °C 34882.6 hPa East 7.7 km/h 15.6 km/h 85 % 0 mm 14.00 W/m2
09:12 -13.3 °C -14.6 °C 34882.6 hPa East 10.3 km/h 15.6 km/h 85 % 0 mm 21.00 W/m2
09:17 -13.3 °C -14.6 °C 34879.2 hPa East 10.3 km/h 15.6 km/h 85 % 0 mm 25.00 W/m2
09:22 -13.2 °C -14.6 °C 34875.8 hPa East 12.9 km/h 18.2 km/h 85 % 0 mm 30.00 W/m2
09:27 -13.2 °C -14.6 °C 34875.8 hPa East 12.9 km/h 15.6 km/h 84 % 0 mm 28.00 W/m2
09:32 -13.2 °C -14.7 °C 34879.2 hPa East 12.9 km/h 15.6 km/h 83 % 0 mm 32.00 W/m2
09:37 -13.2 °C -14.7 °C 34879.2 hPa East 12.9 km/h 23.3 km/h 83 % 0 mm 37.00 W/m2
09:42 -13.2 °C -14.7 °C 34875.8 hPa East 15.6 km/h 23.3 km/h 83 % 0 mm 40.00 W/m2
09:47 -13.2 °C -14.7 °C 34875.8 hPa East 15.6 km/h 23.3 km/h 83 % 0 mm 40.00 W/m2
09:52 -13.2 °C -14.7 °C 34872.4 hPa East 15.6 km/h 23.3 km/h 83 % 0 mm 46.00 W/m2
09:57 -13.2 °C -14.7 °C 34875.8 hPa East 12.9 km/h 25.9 km/h 83 % 0 mm 46.00 W/m2
10:02 -13.1 °C -14.6 °C 34872.4 hPa East 15.6 km/h 28.5 km/h 83 % 0 mm 42.00 W/m2
10:07 -13 °C -14.6 °C 34872.4 hPa East 18.2 km/h 28.5 km/h 82 % 0 mm 47.00 W/m2
10:12 -12.9 °C -14.7 °C 34872.4 hPa East 18.2 km/h 28.5 km/h 81 % 0 mm 56.00 W/m2
10:17 -12.8 °C -14.8 °C 34872.4 hPa East 18.2 km/h 25.9 km/h 79 % 0 mm 81.00 W/m2
10:22 -12.7 °C -14.8 °C 34872.4 hPa East 18.2 km/h 28.5 km/h 78 % 0 mm 72.00 W/m2
10:27 -12.7 °C -14.8 °C 34872.4 hPa East 15.6 km/h 31.1 km/h 78 % 0 mm 144.00 W/m2
10:32 -12.6 °C -14.8 °C 34872.4 hPa East 12.9 km/h 25.9 km/h 77 % 0 mm 163.00 W/m2
10:37 -12.4 °C -14.8 °C 34869 hPa East 15.6 km/h 25.9 km/h 75 % 0 mm 79.00 W/m2
10:42 -12.4 °C -14.8 °C 34872.4 hPa East 12.9 km/h 28.5 km/h 74 % 0 mm 79.00 W/m2
10:47 -12.3 °C -14.7 °C 34869 hPa East 12.9 km/h 23.3 km/h 75 % 0 mm 207.00 W/m2
10:52 -12.2 °C -14.6 °C 34869 hPa East 12.9 km/h 23.3 km/h 74 % 0 mm 218.00 W/m2
10:57 -12 °C -14.6 °C 34869 hPa East 12.9 km/h 25.9 km/h 73 % 0 mm 206.00 W/m2
11:03 -11.8 °C -14.5 °C 34869 hPa East 12.9 km/h 23.3 km/h 72 % 0 mm 193.00 W/m2
11:07 -11.7 °C -14.6 °C 34865.6 hPa East 15.6 km/h 23.3 km/h 70 % 0 mm 216.00 W/m2
11:12 -11.5 °C -14.7 °C 34862.3 hPa East 15.6 km/h 25.9 km/h 68 % 0 mm 234.00 W/m2
11:17 -11.3 °C -14.8 °C 34862.3 hPa East 12.9 km/h 28.5 km/h 66 % 0 mm 255.00 W/m2
11:22 -11.3 °C -14.9 °C 34862.3 hPa East 15.6 km/h 28.5 km/h 64 % 0 mm 260.00 W/m2
11:27 -11.3 °C -15.2 °C 34841.9 hPa ENE 28.5 km/h 21.6 km/h 62 % 0 mm 265.00 W/m2
11:32 -11.3 °C -15 °C 34862.3 hPa East 18.2 km/h 23.3 km/h 64 % 0 mm 236.00 W/m2
11:37 -11.3 °C -15 °C 34858.9 hPa East 15.6 km/h 25.9 km/h 64 % 0 mm 230.00 W/m2
11:42 -11.3 °C -15.1 °C 34858.9 hPa East 15.6 km/h 25.9 km/h 63 % 0 mm 236.00 W/m2
11:47 -11.4 °C -15.2 °C 34855.5 hPa ENE 18.2 km/h 33.6 km/h 63 % 0 mm 206.00 W/m2
11:52 -11.3 °C -15 °C 34852.1 hPa East 20.8 km/h 23.3 km/h 64 % 0 mm 213.00 W/m2
Meteocoruña
Agradecimientos a Weather Underground - 2.5 mb